Time;durP1;ratioP1;P1;durP2;ratioP2;P2;SDS_P1;SDS_P2;PMS_P1;PMS_P2;Temp;Humidity;BMP_temperature;BMP_pressure;BME280_temperature;BME280_humidity;BME280_pressure;Samples;Min_cycle;Max_cycle;Signal;HPM_P1;HPM_P2
2021/05/17 00:02:04;;;;;;;8.50;5.88;;;10.30;98.60;;;;;;5080137;28;20040;-70
2021/05/17 00:04:32;;;;;;;11.48;5.78;;;10.20;98.60;;;;;;5079442;28;20404;-70
2021/05/17 00:07:00;;;;;;;11.45;5.35;;;10.30;98.70;;;;;;5079744;28;20059;-70
2021/05/17 00:09:27;;;;;;;8.38;5.53;;;10.30;98.70;;;;;;5079107;28;20032;-70
2021/05/17 00:11:54;;;;;;;14.63;5.43;;;10.30;98.70;;;;;;5080098;28;20045;-69
2021/05/17 00:14:22;;;;;;;7.88;4.90;;;10.30;98.60;;;;;;5079750;28;20543;-70
2021/05/17 00:16:49;;;;;;;7.68;4.60;;;10.30;98.60;;;;;;5079528;28;20491;-69
2021/05/17 00:19:15;;;;;;;9.65;4.72;;;10.40;98.60;;;;;;5078970;28;20047;-70
2021/05/17 00:21:42;;;;;;;8.52;4.45;;;10.40;98.60;;;;;;5079664;28;20036;-70
2021/05/17 00:24:09;;;;;;;6.32;4.90;;;10.40;98.60;;;;;;5079580;28;20434;-70
2021/05/17 00:26:35;;;;;;;13.10;6.63;;;10.40;98.50;;;;;;5080014;28;20039;-70
2021/05/17 00:29:02;;;;;;;8.73;4.57;;;10.40;98.60;;;;;;5078944;28;20038;-70
2021/05/17 00:31:28;;;;;;;11.10;4.50;;;10.30;98.60;;;;;;5079188;28;20040;-70
2021/05/17 00:33:54;;;;;;;7.80;5.18;;;10.30;98.50;;;;;;5079234;28;20075;-70
2021/05/17 00:36:20;;;;;;;8.27;4.13;;;10.20;98.60;;;;;;5075441;28;20032;-69
2021/05/17 00:38:46;;;;;;;6.13;4.10;;;10.20;98.60;;;;;;5075984;28;20496;-70
2021/05/17 00:41:12;;;;;;;6.75;3.90;;;10.20;98.70;;;;;;5075897;28;20040;-69
2021/05/17 00:43:38;;;;;;;7.45;4.43;;;10.20;98.60;;;;;;5076181;28;20036;-70
2021/05/17 00:46:05;;;;;;;5.43;4.32;;;10.20;98.60;;;;;;5076027;28;20037;-70
2021/05/17 00:48:31;;;;;;;5.97;3.92;;;10.20;98.60;;;;;;5075595;28;20064;-70
2021/05/17 00:50:58;;;;;;;7.60;3.90;;;10.10;98.60;;;;;;5076088;28;20170;-70
2021/05/17 00:53:24;;;;;;;8.63;4.57;;;10.10;98.70;;;;;;5076281;28;20052;-70
2021/05/17 00:55:50;;;;;;;5.32;4.03;;;10.10;98.60;;;;;;5075676;28;20033;-69
2021/05/17 00:58:16;;;;;;;7.15;3.97;;;10.20;98.70;;;;;;5075806;28;20046;-70
2021/05/17 01:00:42;;;;;;;7.03;3.63;;;10.10;98.60;;;;;;5075691;28;20041;-70
2021/05/17 01:03:09;;;;;;;6.65;3.92;;;10.20;98.60;;;;;;5075813;28;20040;-70
2021/05/17 01:05:36;;;;;;;5.70;4.00;;;10.20;98.60;;;;;;5075399;28;20511;-70
2021/05/17 01:08:03;;;;;;;7.03;4.50;;;10.20;98.70;;;;;;5075537;28;20097;-70
2021/05/17 01:10:30;;;;;;;8.90;3.88;;;10.10;98.70;;;;;;5073716;28;20040;-70
2021/05/17 01:12:57;;;;;;;6.40;3.63;;;10.20;98.80;;;;;;5075492;28;20061;-69
2021/05/17 01:15:23;;;;;;;6.78;3.95;;;10.20;98.80;;;;;;5075607;28;20036;-70
2021/05/17 01:17:49;;;;;;;9.02;4.55;;;10.20;98.70;;;;;;5075289;28;20040;-69
2021/05/17 01:20:18;;;;;;;5.68;4.38;;;10.20;98.80;;;;;;5074885;28;20044;-70
2021/05/17 01:22:52;;;;;;;15.80;4.55;;;10.30;98.80;;;;;;5075304;28;20090;-70
2021/05/17 01:25:23;;;;;;;4.65;3.58;;;10.20;98.80;;;;;;5075138;28;20048;-70
2021/05/17 01:27:50;;;;;;;5.55;3.90;;;10.20;98.70;;;;;;5075757;28;20064;-69
2021/05/17 01:30:18;;;;;;;8.02;3.95;;;10.20;98.90;;;;;;5074675;28;20399;-70
2021/05/17 01:32:45;;;;;;;5.72;3.88;;;10.20;99.20;;;;;;5075122;28;20513;-70
2021/05/17 01:35:12;;;;;;;6.53;3.78;;;10.20;99.00;;;;;;5075117;28;20037;-69
2021/05/17 01:37:39;;;;;;;4.60;2.95;;;10.10;98.90;;;;;;5075574;28;20472;-70
2021/05/17 01:40:07;;;;;;;3.72;2.60;;;10.10;99.10;;;;;;5074593;28;20063;-70
2021/05/17 01:42:38;;;;;;;8.45;2.58;;;10.10;99.10;;;;;;5074704;28;20086;-70
2021/05/17 01:45:05;;;;;;;4.60;2.30;;;10.10;99.20;;;;;;5074794;28;20126;-69
2021/05/17 01:47:34;;;;;;;4.18;2.35;;;10.10;99.20;;;;;;5074588;28;20040;-70
2021/05/17 01:50:00;;;;;;;4.13;2.20;;;10.00;99.10;;;;;;5074393;28;20450;-70
2021/05/17 01:52:26;;;;;;;8.38;3.10;;;10.10;99.10;;;;;;5074517;28;20478;-70
2021/05/17 01:54:54;;;;;;;4.60;2.00;;;10.10;99.10;;;;;;5074437;28;20032;-69
2021/05/17 01:57:20;;;;;;;3.22;2.47;;;10.10;99.00;;;;;;5074842;28;20033;-69
2021/05/17 01:59:46;;;;;;;3.65;2.28;;;10.10;99.10;;;;;;5074221;28;20059;-69
2021/05/17 02:02:12;;;;;;;2.90;1.90;;;10.10;99.20;;;;;;5075009;28;20036;-70
2021/05/17 02:04:37;;;;;;;2.97;2.05;;;10.10;99.10;;;;;;5074492;28;20042;-69
2021/05/17 02:07:04;;;;;;;2.10;1.70;;;10.10;99.00;;;;;;5074259;28;20120;-69
2021/05/17 02:09:37;;;;;;;2.63;2.05;;;10.10;99.00;;;;;;5074458;28;20551;-70
2021/05/17 02:12:04;;;;;;;3.15;2.33;;;10.10;99.00;;;;;;5074243;28;20048;-70
2021/05/17 02:14:30;;;;;;;2.55;2.03;;;10.10;99.10;;;;;;5074716;28;20072;-70
2021/05/17 02:16:56;;;;;;;3.42;1.90;;;10.10;99.20;;;;;;5074383;28;20079;-70
2021/05/17 02:19:23;;;;;;;6.80;2.10;;;10.00;99.20;;;;;;5073981;28;20041;-70
2021/05/17 02:21:49;;;;;;;3.30;1.70;;;10.10;99.10;;;;;;5074357;28;20036;-70
2021/05/17 02:24:16;;;;;;;3.70;1.83;;;10.00;99.30;;;;;;5073076;28;20060;-70
2021/05/17 02:26:42;;;;;;;1.48;1.08;;;10.00;99.00;;;;;;5074063;28;20037;-70
2021/05/17 02:29:12;;;;;;;1.83;1.60;;;10.00;99.00;;;;;;5073854;28;20040;-70
2021/05/17 02:31:38;;;;;;;3.30;1.58;;;10.00;99.00;;;;;;5073647;28;20041;-70
2021/05/17 02:34:04;;;;;;;1.40;1.15;;;10.00;99.00;;;;;;5074349;28;20503;-70
2021/05/17 02:36:30;;;;;;;1.83;1.40;;;10.00;99.00;;;;;;5073783;28;20442;-70
2021/05/17 02:38:56;;;;;;;1.75;1.42;;;9.90;98.90;;;;;;5073452;28;20063;-70
2021/05/17 02:41:23;;;;;;;1.80;1.60;;;9.90;99.00;;;;;;5073935;28;20040;-70
2021/05/17 02:43:49;;;;;;;2.65;1.45;;;9.80;99.00;;;;;;5073686;28;20503;-70
2021/05/17 02:46:16;;;;;;;2.60;1.73;;;9.80;99.00;;;;;;5074159;28;20471;-70
2021/05/17 02:48:43;;;;;;;1.75;1.40;;;9.80;99.00;;;;;;5073306;28;20040;-70
2021/05/17 02:51:10;;;;;;;2.47;1.65;;;9.80;99.00;;;;;;5073613;28;20502;-70
2021/05/17 02:53:38;;;;;;;3.65;1.77;;;9.80;98.90;;;;;;5073881;28;20041;-70
2021/05/17 02:56:25;;;;;;;3.03;2.25;;;9.90;98.90;;;;;;5073898;28;20040;-70
2021/05/17 02:58:51;;;;;;;3.00;2.38;;;9.90;98.80;;;;;;5073162;28;20032;-70
2021/05/17 03:01:48;;;;;;;5.30;2.20;;;9.90;98.90;;;;;;5073621;28;20044;-70
2021/05/17 03:04:18;;;;;;;4.18;2.33;;;9.90;98.80;;;;;;5057371;28;20443;-70
2021/05/17 03:07:02;;;;;;;3.80;2.60;;;9.80;98.70;;;;;;5073852;28;20126;-70
2021/05/17 03:09:29;;;;;;;3.20;2.70;;;9.80;98.70;;;;;;5089012;28;20404;-70
2021/05/17 03:11:59;;;;;;;5.38;2.85;;;9.80;98.80;;;;;;5073485;28;20125;-70
2021/05/17 03:14:27;;;;;;;4.80;3.10;;;9.80;98.90;;;;;;5073350;28;20060;-70
2021/05/17 03:16:55;;;;;;;6.20;3.28;;;9.80;98.90;;;;;;5073218;28;20115;-70
2021/05/17 03:19:22;;;;;;;4.80;3.42;;;9.80;98.90;;;;;;5073027;28;20037;-69
2021/05/17 03:21:54;;;;;;;6.07;3.83;;;9.80;99.10;;;;;;5073763;28;20036;-70
2021/05/17 03:24:21;;;;;;;7.18;4.22;;;9.80;99.10;;;;;;5073397;28;20040;-70
2021/05/17 03:26:49;;;;;;;5.85;4.22;;;9.80;99.10;;;;;;5073534;28;20044;-69
2021/05/17 03:29:15;;;;;;;7.43;4.63;;;9.80;99.20;;;;;;5072730;28;20040;-70
2021/05/17 03:31:40;;;;;;;7.95;5.03;;;9.80;99.20;;;;;;5073261;28;20043;-70
2021/05/17 03:34:06;;;;;;;6.65;5.05;;;9.90;99.40;;;;;;5073629;28;20138;-69
2021/05/17 03:36:32;;;;;;;8.80;5.68;;;9.80;99.20;;;;;;5073109;28;20033;-70
2021/05/17 03:38:58;;;;;;;8.45;5.22;;;9.90;99.20;;;;;;5072636;28;20487;-69
2021/05/17 03:41:24;;;;;;;7.20;5.63;;;9.90;99.40;;;;;;5072884;28;20464;-70
2021/05/17 03:43:49;;;;;;;7.93;5.55;;;9.90;99.40;;;;;;5072912;28;20116;-69
2021/05/17 03:46:16;;;;;;;8.75;5.90;;;9.90;99.40;;;;;;5073452;28;20037;-69
2021/05/17 03:48:41;;;;;;;9.90;6.25;;;9.90;99.40;;;;;;5072619;28;20028;-69
2021/05/17 03:51:08;;;;;;;12.30;7.22;;;9.90;99.50;;;;;;5073050;28;20472;-70
2021/05/17 03:53:34;;;;;;;10.43;6.82;;;9.90;99.60;;;;;;5073227;28;20036;-69
2021/05/17 03:56:00;;;;;;;9.75;7.07;;;10.00;99.60;;;;;;5073162;28;20361;-69
2021/05/17 03:58:28;;;;;;;13.48;7.53;;;10.00;99.60;;;;;;5072943;28;20047;-70
2021/05/17 04:00:57;;;;;;;12.27;7.88;;;10.00;99.60;;;;;;5072969;28;20539;-69
2021/05/17 04:03:27;;;;;;;11.75;7.93;;;10.00;99.70;;;;;;5072120;28;20468;-69
2021/05/17 04:06:06;;;;;;;11.75;7.43;;;10.10;99.70;;;;;;5072786;28;20067;-69
2021/05/17 04:13:53;;;;;;;14.70;8.68;;;10.10;99.70;;;;;;5076420;28;20381;-69
2021/05/17 04:16:19;;;;;;;10.90;7.80;;;10.10;99.70;;;;;;5076416;28;20090;-69
2021/05/17 04:18:46;;;;;;;10.95;7.90;;;10.10;99.80;;;;;;5076146;28;20037;-70
2021/05/17 04:21:12;;;;;;;12.18;7.60;;;10.10;99.70;;;;;;5076272;28;20446;-69
2021/05/17 04:23:38;;;;;;;11.77;8.80;;;10.20;99.80;;;;;;5076237;28;20052;-69
2021/05/17 04:26:04;;;;;;;11.55;8.48;;;10.20;99.80;;;;;;5076403;28;20063;-69
2021/05/17 04:28:30;;;;;;;16.90;9.60;;;10.20;99.90;;;;;;5076023;28;20044;-70
2021/05/17 04:30:56;;;;;;;13.85;8.57;;;10.20;99.80;;;;;;5076013;28;20078;-69
2021/05/17 04:33:22;;;;;;;12.43;7.57;;;10.10;99.80;;;;;;5076384;28;20102;-69
2021/05/17 04:35:48;;;;;;;11.93;8.80;;;10.20;99.90;;;;;;5075990;28;20476;-69
2021/05/17 04:38:14;;;;;;;14.95;9.70;;;10.20;99.90;;;;;;5076017;28;20036;-69
2021/05/17 04:40:43;;;;;;;10.80;8.38;;;10.20;99.90;;;;;;5075009;28;20032;-69
2021/05/17 04:43:09;;;;;;;14.05;9.63;;;10.20;99.90;;;;;;5075790;28;20040;-69
2021/05/17 04:45:34;;;;;;;14.35;9.77;;;10.20;99.90;;;;;;5075838;28;20036;-69
2021/05/17 04:48:00;;;;;;;14.13;10.10;;;10.20;99.90;;;;;;5076061;28;20187;-69
2021/05/17 04:50:26;;;;;;;15.27;10.25;;;10.20;99.90;;;;;;5075731;28;20036;-69
2021/05/17 04:52:52;;;;;;;14.45;10.00;;;10.30;99.90;;;;;;5075728;28;20049;-69
2021/05/17 04:55:18;;;;;;;14.40;9.52;;;10.20;99.90;;;;;;5076027;28;20067;-69
2021/05/17 04:57:44;;;;;;;15.63;10.77;;;10.20;99.90;;;;;;5076296;28;20036;-69
2021/05/17 05:00:11;;;;;;;13.90;9.77;;;10.30;99.90;;;;;;5075269;28;20036;-69
2021/05/17 05:02:37;;;;;;;13.68;10.70;;;10.30;99.90;;;;;;5075485;28;20044;-69
2021/05/17 05:05:04;;;;;;;16.55;10.80;;;10.30;99.90;;;;;;5075799;28;20044;-69
2021/05/17 05:07:29;;;;;;;14.85;9.95;;;10.30;99.90;;;;;;5074918;28;20071;-70
2021/05/17 05:09:55;;;;;;;15.13;10.52;;;10.30;99.90;;;;;;5075054;28;20068;-69
2021/05/17 05:12:20;;;;;;;13.95;11.07;;;10.30;99.90;;;;;;5076051;28;20043;-70
2021/05/17 05:14:46;;;;;;;15.40;10.93;;;10.30;99.90;;;;;;5075409;28;20048;-69
2021/05/17 05:17:12;;;;;;;19.42;11.77;;;10.30;99.90;;;;;;5075570;28;20044;-69
2021/05/17 05:19:37;;;;;;;14.52;10.27;;;10.30;99.90;;;;;;5075218;28;20468;-70
2021/05/17 05:22:03;;;;;;;17.95;12.32;;;10.30;99.90;;;;;;5075118;28;20045;-69
2021/05/17 05:24:29;;;;;;;15.85;11.20;;;10.30;99.90;;;;;;5075240;28;20040;-69
2021/05/17 05:27:08;;;;;;;16.17;11.57;;;10.40;99.90;;;;;;5075039;28;20039;-69
2021/05/17 05:30:15;;;;;;;16.10;10.40;;;10.40;99.90;;;;;;5074878;28;20086;-70
2021/05/17 05:32:39;;;;;;;14.25;10.23;;;10.40;99.90;;;;;;5072626;28;20135;-70
2021/05/17 05:35:05;;;;;;;17.60;11.98;;;10.40;99.90;;;;;;5075552;28;20059;-69
2021/05/17 05:37:30;;;;;;;18.25;12.15;;;10.40;99.90;;;;;;5074955;28;20043;-69
2021/05/17 05:39:56;;;;;;;17.00;11.75;;;10.40;99.90;;;;;;5074596;28;20536;-69
2021/05/17 05:42:24;;;;;;;23.13;12.55;;;10.40;99.90;;;;;;5074972;28;20110;-69
2021/05/17 05:44:50;;;;;;;18.42;12.80;;;10.50;99.90;;;;;;5074804;28;20037;-69
2021/05/17 05:47:17;;;;;;;16.85;12.40;;;10.50;99.90;;;;;;5074848;28;20040;-69
2021/05/17 05:49:48;;;;;;;20.83;14.77;;;10.60;99.90;;;;;;5073037;28;20457;-69
2021/05/17 05:52:15;;;;;;;18.95;12.75;;;10.60;99.90;;;;;;5075123;28;20119;-69
2021/05/17 05:54:42;;;;;;;20.00;13.30;;;10.70;99.90;;;;;;5074751;28;20111;-69
2021/05/17 05:57:09;;;;;;;18.15;12.65;;;10.70;99.90;;;;;;5074830;28;20086;-69
2021/05/17 05:59:34;;;;;;;19.98;13.40;;;10.70;99.90;;;;;;5074147;28;20042;-69
2021/05/17 06:02:00;;;;;;;17.20;12.73;;;10.80;99.90;;;;;;5074386;28;20042;-69
2021/05/17 06:04:27;;;;;;;19.92;13.70;;;10.80;99.90;;;;;;5074690;28;20485;-70
2021/05/17 06:06:53;;;;;;;21.60;13.93;;;10.90;99.90;;;;;;5074335;28;20068;-70
2021/05/17 06:09:19;;;;;;;18.52;12.80;;;10.90;99.90;;;;;;5073785;28;20071;-70
2021/05/17 06:11:44;;;;;;;19.42;13.35;;;11.10;99.90;;;;;;5074448;28;20430;-70
2021/05/17 06:14:11;;;;;;;15.48;12.60;;;11.10;99.90;;;;;;5074206;28;20162;-70
2021/05/17 06:16:37;;;;;;;16.90;11.30;;;11.20;99.80;;;;;;5074227;28;20033;-70
2021/05/17 06:19:04;;;;;;;15.95;12.27;;;11.30;99.70;;;;;;5074223;28;20049;-70
2021/05/17 06:21:30;;;;;;;14.55;11.80;;;11.40;99.60;;;;;;5073812;28;20058;-70
2021/05/17 06:23:56;;;;;;;17.90;11.95;;;11.40;99.90;;;;;;5074212;28;20036;-70
2021/05/17 06:26:24;;;;;;;15.25;11.13;;;11.50;99.50;;;;;;5073690;28;20045;-70
2021/05/17 06:28:50;;;;;;;15.38;10.35;;;11.60;99.50;;;;;;5073480;28;20037;-70
2021/05/17 06:31:17;;;;;;;15.70;10.90;;;11.60;99.40;;;;;;5073526;28;20396;-70
2021/05/17 06:33:45;;;;;;;20.85;11.40;;;11.70;99.30;;;;;;5073107;28;20097;-70
2021/05/17 06:36:13;;;;;;;14.25;10.30;;;11.70;99.10;;;;;;5073646;28;20041;-68
2021/05/17 06:38:41;;;;;;;13.73;10.25;;;11.60;99.00;;;;;;5073408;28;20123;-69
2021/05/17 06:41:08;;;;;;;16.40;10.50;;;11.60;99.00;;;;;;5073920;28;20396;-69
2021/05/17 06:43:37;;;;;;;17.80;11.50;;;11.60;99.00;;;;;;5073522;28;20043;-69
2021/05/17 06:46:04;;;;;;;12.77;10.50;;;11.60;99.10;;;;;;5073855;28;20037;-70
2021/05/17 06:48:30;;;;;;;17.08;10.73;;;11.60;99.10;;;;;;5073527;28;20063;-73
2021/05/17 06:50:55;;;;;;;13.63;10.63;;;11.80;99.10;;;;;;5073570;28;20472;-73
2021/05/17 06:53:23;;;;;;;13.68;10.38;;;11.80;99.20;;;;;;5074022;28;20051;-73
2021/05/17 06:58:27;;;;;;;11.40;9.88;;;11.80;99.10;;;;;;5073629;28;20471;-73
2021/05/17 07:00:54;;;;;;;13.82;10.13;;;11.80;99.10;;;;;;5073542;28;20044;-73
2021/05/17 07:03:22;;;;;;;17.42;10.40;;;11.80;98.90;;;;;;5073459;28;20041;-73
2021/05/17 07:05:49;;;;;;;15.23;10.57;;;11.80;98.90;;;;;;5072152;28;20499;-73
2021/05/17 07:13:27;;;;;;;15.63;10.40;;;11.90;98.90;;;;;;5073378;28;20040;-73
2021/05/17 07:15:53;;;;;;;14.15;11.05;;;11.90;98.90;;;;;;5088932;28;20033;-73
2021/05/17 07:18:19;;;;;;;17.88;11.27;;;12.00;98.90;;;;;;5073527;28;20039;-73
2021/05/17 07:26:01;;;;;;;16.10;12.00;;;12.20;98.40;;;;;;5073433;28;20185;-73
2021/05/17 07:28:28;;;;;;;22.73;13.27;;;12.20;98.80;;;;;;5073410;28;20043;-75
2021/05/17 07:30:54;;;;;;;15.95;12.35;;;12.20;98.90;;;;;;5073069;28;20454;-73
2021/05/17 07:33:20;;;;;;;17.83;12.38;;;12.20;98.80;;;;;;5073420;28;20041;-73
2021/05/17 07:35:46;;;;;;;18.98;12.77;;;12.20;98.90;;;;;;5073722;28;20090;-73
2021/05/17 07:38:12;;;;;;;19.90;13.73;;;12.20;99.30;;;;;;5073611;28;20043;-73
2021/05/17 07:40:38;;;;;;;19.50;14.00;;;12.20;99.20;;;;;;5072665;28;20506;-73
2021/05/17 07:43:04;;;;;;;23.67;15.07;;;12.10;99.30;;;;;;5073039;28;20037;-73
2021/05/17 07:45:29;;;;;;;18.73;12.77;;;12.10;99.30;;;;;;5075747;28;20048;-73
2021/05/17 07:47:55;;;;;;;21.13;15.20;;;12.10;99.30;;;;;;5077459;28;20062;-73
2021/05/17 07:50:21;;;;;;;23.65;15.55;;;12.10;99.50;;;;;;5076606;28;20177;-73
2021/05/17 07:52:47;;;;;;;22.17;14.73;;;12.10;99.40;;;;;;5076909;28;20041;-73
2021/05/17 07:55:15;;;;;;;23.77;16.00;;;12.10;99.40;;;;;;5077043;28;20040;-73
2021/05/17 07:57:41;;;;;;;25.17;17.30;;;12.10;99.50;;;;;;5076917;28;20115;-73
2021/05/17 08:00:08;;;;;;;20.30;15.48;;;12.10;99.40;;;;;;5076620;28;20060;-73
2021/05/17 08:02:34;;;;;;;23.08;15.10;;;12.10;99.30;;;;;;5077145;28;20150;-73
2021/05/17 08:04:59;;;;;;;21.05;14.70;;;12.10;99.40;;;;;;5077382;28;20131;-73
2021/05/17 08:07:25;;;;;;;20.42;14.63;;;12.10;99.30;;;;;;5076823;28;20036;-73
2021/05/17 08:09:51;;;;;;;22.92;15.27;;;12.20;99.40;;;;;;5076144;28;20040;-73
2021/05/17 08:12:17;;;;;;;23.70;16.63;;;12.30;99.50;;;;;;5076570;28;20040;-73
2021/05/17 08:14:43;;;;;;;23.33;16.60;;;12.40;99.30;;;;;;5076884;28;20456;-73
2021/05/17 08:17:09;;;;;;;24.63;17.40;;;12.60;99.60;;;;;;5077161;28;20036;-73
2021/05/17 08:19:35;;;;;;;21.50;15.57;;;12.80;99.00;;;;;;5076225;28;20491;-73
2021/05/17 08:22:01;;;;;;;24.30;16.48;;;13.10;98.70;;;;;;5076189;28;20037;-73
2021/05/17 08:24:27;;;;;;;21.15;15.57;;;13.40;98.50;;;;;;5076658;28;20041;-73
2021/05/17 08:26:53;;;;;;;20.27;14.50;;;13.80;98.60;;;;;;5076552;28;20032;-73
2021/05/17 08:29:20;;;;;;;21.65;15.95;;;13.80;97.40;;;;;;5074893;28;20040;-73
2021/05/17 08:31:48;;;;;;;22.05;15.98;;;13.90;97.90;;;;;;5076104;28;20040;-73
2021/05/17 08:34:14;;;;;;;21.30;15.43;;;13.90;97.80;;;;;;5077043;28;20413;-73
2021/05/17 08:36:40;;;;;;;20.52;16.10;;;13.70;97.90;;;;;;5075985;28;20115;-74
2021/05/17 08:39:07;;;;;;;19.23;15.60;;;13.70;97.90;;;;;;5075754;28;20040;-74
2021/05/17 08:41:36;;;;;;;21.10;15.93;;;13.60;98.10;;;;;;5075883;28;20422;-74
2021/05/17 08:44:06;;;;;;;21.42;15.70;;;13.50;98.00;;;;;;5075936;28;20499;-74
2021/05/17 08:46:32;;;;;;;22.25;15.88;;;13.50;98.30;;;;;;5076015;28;20036;-74
2021/05/17 08:48:58;;;;;;;23.15;17.00;;;13.40;98.50;;;;;;5075633;28;20044;-74
2021/05/17 08:51:29;;;;;;;22.13;15.20;;;13.40;98.60;;;;;;5074983;28;20426;-73
2021/05/17 08:53:58;;;;;;;20.80;15.30;;;13.30;98.40;;;;;;5076268;28;20036;-74
2021/05/17 08:56:24;;;;;;;16.77;13.18;;;13.30;98.40;;;;;;5074939;28;20040;-71
2021/05/17 08:58:58;;;;;;;17.50;13.68;;;13.40;98.40;;;;;;5075382;28;20045;-72
2021/05/17 09:01:25;;;;;;;14.80;11.77;;;13.50;97.90;;;;;;5076272;28;20040;-72
2021/05/17 09:04:00;;;;;;;16.23;11.38;;;13.60;98.00;;;;;;5075696;28;20112;-72
2021/05/17 09:06:47;;;;;;;14.27;11.32;;;13.90;97.50;;;;;;5075791;28;20055;-70
2021/05/17 09:09:35;;;;;;;13.95;11.10;;;14.10;97.30;;;;;;5075244;28;20407;-70
2021/05/17 09:12:06;;;;;;;12.27;10.02;;;14.40;96.90;;;;;;5075991;28;20472;-70
2021/05/17 09:14:33;;;;;;;14.05;11.07;;;14.30;96.30;;;;;;5074870;28;20040;-72
2021/05/17 09:17:03;;;;;;;11.30;9.10;;;14.40;96.10;;;;;;5074948;28;20515;-71
2021/05/17 09:19:33;;;;;;;13.02;8.95;;;14.60;95.40;;;;;;5074820;28;20074;-71
2021/05/17 09:22:09;;;;;;;10.57;8.75;;;14.90;95.10;;;;;;5075842;28;20036;-71
2021/05/17 09:24:42;;;;;;;11.48;8.25;;;15.10;94.80;;;;;;5075899;28;20488;-71
2021/05/17 09:27:28;;;;;;;10.43;7.85;;;15.50;94.00;;;;;;5075810;28;20044;-71
2021/05/17 09:30:03;;;;;;;10.07;7.75;;;15.70;93.70;;;;;;5074814;28;20051;-71
2021/05/17 09:32:35;;;;;;;6.95;6.18;;;15.70;93.30;;;;;;5074654;28;20676;-71
2021/05/17 09:35:13;;;;;;;6.55;5.25;;;15.50;93.10;;;;;;5074519;28;20079;-71
2021/05/17 09:37:50;;;;;;;7.65;5.47;;;15.40;93.40;;;;;;5074874;28;20045;-72
2021/05/17 09:40:18;;;;;;;8.88;6.35;;;15.20;93.10;;;;;;5074844;28;20433;-71
2021/05/17 09:42:44;;;;;;;9.80;6.55;;;15.20;93.70;;;;;;5075190;28;20440;-71
2021/05/17 09:45:12;;;;;;;11.73;7.32;;;15.10;94.10;;;;;;5074735;28;20068;-72
2021/05/17 09:47:38;;;;;;;7.93;6.93;;;15.00;94.50;;;;;;5075303;28;20294;-72
2021/05/17 09:50:04;;;;;;;10.27;7.50;;;14.90;94.60;;;;;;5074660;28;20449;-71
2021/05/17 09:52:36;;;;;;;7.78;6.80;;;14.90;94.50;;;;;;5075239;28;20040;-71
2021/05/17 09:55:11;;;;;;;9.45;6.22;;;15.10;94.30;;;;;;5074473;28;20040;-70
2021/05/17 09:57:41;;;;;;;8.70;6.43;;;15.10;93.50;;;;;;5075244;28;20113;-72
2021/05/17 10:00:29;;;;;;;10.75;7.30;;;15.20;93.20;;;;;;5074247;28;20534;-72
2021/05/17 10:02:56;;;;;;;9.02;6.60;;;15.10;93.10;;;;;;5074722;28;20105;-70
2021/05/17 10:05:25;;;;;;;10.55;6.00;;;15.20;92.70;;;;;;5074025;28;20075;-73
2021/05/17 10:07:59;;;;;;;8.90;6.50;;;15.20;92.50;;;;;;5074455;28;20040;-74
2021/05/17 10:10:27;;;;;;;8.43;6.18;;;15.00;92.40;;;;;;5073828;28;20511;-74
2021/05/17 10:12:55;;;;;;;10.48;5.80;;;15.00;92.80;;;;;;5074425;28;20464;-74
2021/05/17 10:15:23;;;;;;;7.60;5.80;;;14.80;92.80;;;;;;5074525;28;20424;-74
2021/05/17 10:17:50;;;;;;;9.10;6.05;;;14.70;93.60;;;;;;5074172;28;20120;-73
2021/05/17 10:20:19;;;;;;;7.13;5.18;;;14.40;94.70;;;;;;5073720;28;20050;-74
2021/05/17 10:22:46;;;;;;;8.40;4.70;;;14.00;95.40;;;;;;5074692;28;20060;-74
2021/05/17 10:25:52;;;;;;;8.23;4.25;;;13.80;95.90;;;;;;5074346;28;20047;-74
2021/05/17 10:28:24;;;;;;;7.15;3.60;;;13.50;96.50;;;;;;4993370;28;20049;-73
2021/05/17 10:30:51;;;;;;;4.65;3.45;;;13.30;97.50;;;;;;5063110;28;20500;-73
2021/05/17 10:33:20;;;;;;;2.85;2.30;;;13.20;97.40;;;;;;5072543;28;20044;-72
2021/05/17 10:35:47;;;;;;;2.55;1.88;;;13.30;97.50;;;;;;5074031;28;20029;-73
2021/05/17 10:38:25;;;;;;;2.42;2.17;;;13.40;97.60;;;;;;5073717;28;20036;-73
2021/05/17 10:40:58;;;;;;;4.70;3.60;;;13.40;97.50;;;;;;5073974;28;20036;-73
2021/05/17 10:43:52;;;;;;;7.05;5.82;;;13.40;97.70;;;;;;5074334;28;20071;-73
2021/05/17 10:46:41;;;;;;;7.43;5.00;;;13.40;97.60;;;;;;5073735;28;20472;-73
2021/05/17 10:49:20;;;;;;;8.40;5.40;;;13.40;97.50;;;;;;5073403;28;20098;-73
2021/05/17 10:51:47;;;;;;;8.45;6.35;;;13.40;97.40;;;;;;5074062;28;20040;-74
2021/05/17 10:54:28;;;;;;;9.13;6.57;;;13.40;97.50;;;;;;5074011;28;20041;-73
2021/05/17 10:57:03;;;;;;;8.13;6.40;;;13.50;97.60;;;;;;5073750;28;20040;-73
2021/05/17 11:02:32;;;;;;;7.35;5.65;;;13.70;97.30;;;;;;5074126;28;20066;-73
2021/05/17 11:05:01;;;;;;;9.82;5.55;;;13.80;97.20;;;;;;5073693;28;20048;-73
2021/05/17 11:07:29;;;;;;;11.35;5.50;;;14.00;97.10;;;;;;5073491;28;20040;-73
2021/05/17 11:10:08;;;;;;;5.35;4.70;;;13.90;96.60;;;;;;5073175;28;20036;-73
2021/05/17 11:12:37;;;;;;;6.60;5.22;;;14.00;95.70;;;;;;5073943;28;20044;-73
2021/05/17 11:15:10;;;;;;;6.00;4.68;;;14.10;95.30;;;;;;5073279;28;20036;-74
2021/05/17 11:17:52;;;;;;;;;;;14.30;94.50;;;;;;5073673;28;20399;-74
2021/05/17 11:20:40;;;;;;;5.68;4.78;;;14.30;94.40;;;;;;5072566;28;19927;-74
2021/05/17 11:23:21;;;;;;;9.30;5.05;;;14.50;94.40;;;;;;5073029;28;20041;-74
2021/05/17 11:31:23;;;;;;;13.55;8.13;;;15.10;94.10;;;;;;5073326;28;20048;-74
2021/05/17 11:34:03;;;;;;;9.68;6.70;;;15.20;94.60;;;;;;5072219;28;20127;-74
2021/05/17 11:36:33;;;;;;;7.10;6.13;;;15.20;93.60;;;;;;5073452;28;20500;-74
2021/05/17 11:39:15;;;;;;;11.23;6.13;;;15.10;92.90;;;;;;5072801;28;20119;-74
2021/05/17 11:41:45;;;;;;;8.00;5.70;;;15.30;92.40;;;;;;5073021;28;20041;-74
2021/05/17 11:44:15;;;;;;;9.20;6.07;;;15.40;92.60;;;;;;5073218;28;20048;-74
2021/05/17 11:46:49;;;;;;;6.90;4.65;;;15.30;91.90;;;;;;5073139;28;20090;-73
2021/05/17 11:49:18;;;;;;;7.15;5.28;;;15.20;91.50;;;;;;5072781;28;20115;-74
2021/05/17 11:51:49;;;;;;;5.82;4.95;;;15.20;90.90;;;;;;5072894;28;20048;-74
2021/05/17 11:54:16;;;;;;;10.00;5.63;;;15.10;91.40;;;;;;5072999;28;20033;-74
2021/05/17 11:56:48;;;;;;;8.02;5.32;;;15.00;91.40;;;;;;5072763;28;20040;-74
2021/05/17 11:59:26;;;;;;;8.73;6.10;;;14.90;92.00;;;;;;5072470;28;20388;-74
2021/05/17 12:01:54;;;;;;;6.07;5.03;;;15.00;91.80;;;;;;5072658;28;20041;-74
2021/05/17 12:04:28;;;;;;;6.68;4.88;;;15.30;91.80;;;;;;5073449;28;20036;-74
2021/05/17 12:06:55;;;;;;;6.85;4.60;;;15.50;91.00;;;;;;5072910;28;20115;-74
2021/05/17 12:09:47;;;;;;;5.90;5.30;;;15.50;91.50;;;;;;5072313;28;20032;-74
2021/05/17 12:12:24;;;;;;;6.78;4.95;;;15.70;90.30;;;;;;5072434;28;20060;-74
2021/05/17 12:15:03;;;;;;;6.90;4.18;;;15.80;90.80;;;;;;5073354;28;20052;-74
2021/05/17 12:17:33;;;;;;;5.45;3.05;;;15.70;89.10;;;;;;5072628;28;20452;-74
2021/05/17 12:20:10;;;;;;;4.75;3.47;;;15.50;88.80;;;;;;5071257;28;20051;-74
2021/05/17 12:22:49;;;;;;;6.88;3.33;;;15.50;90.10;;;;;;5073320;28;20040;-74
2021/05/17 12:25:24;;;;;;;3.80;2.63;;;15.50;90.60;;;;;;5073049;28;20044;-74
2021/05/17 12:27:52;;;;;;;4.18;2.90;;;15.50;90.70;;;;;;5073184;28;20372;-74
2021/05/17 12:30:20;;;;;;;4.68;3.63;;;15.30;91.50;;;;;;5072234;28;20044;-74
2021/05/17 12:32:49;;;;;;;6.72;3.22;;;15.20;91.90;;;;;;5075557;28;20128;-74
2021/05/17 12:35:25;;;;;;;4.60;3.47;;;15.10;92.20;;;;;;5076584;28;20040;-74
2021/05/17 12:37:56;;;;;;;4.30;2.58;;;15.00;93.30;;;;;;5076823;28;20036;-74
2021/05/17 12:40:26;;;;;;;5.78;3.25;;;14.90;93.00;;;;;;5076039;28;20419;-74
2021/05/17 12:43:04;;;;;;;6.97;2.92;;;14.80;93.70;;;;;;5075931;28;20119;-74
2021/05/17 12:45:30;;;;;;;4.38;3.20;;;14.70;93.60;;;;;;5076469;28;20094;-74
2021/05/17 12:47:56;;;;;;;6.47;3.78;;;14.60;93.70;;;;;;5076189;28;20036;-74
2021/05/17 12:50:28;;;;;;;5.18;2.97;;;14.50;94.60;;;;;;5075504;28;20043;-74
2021/05/17 12:53:06;;;;;;;4.32;3.63;;;14.60;94.70;;;;;;5076549;28;20037;-74
2021/05/17 12:55:40;;;;;;;4.53;3.67;;;14.60;95.30;;;;;;5076180;28;20033;-72
2021/05/17 12:58:07;;;;;;;5.15;3.20;;;14.70;95.10;;;;;;5076070;28;20041;-72
2021/05/17 13:00:49;;;;;;;7.25;3.95;;;14.70;94.80;;;;;;5075295;28;20124;-72
2021/05/17 13:03:15;;;;;;;3.97;3.20;;;14.80;94.70;;;;;;5075503;28;20037;-72
2021/05/17 13:05:51;;;;;;;5.07;3.35;;;14.90;95.00;;;;;;5075451;28;20063;-72
2021/05/17 13:08:18;;;;;;;6.15;3.47;;;14.80;94.30;;;;;;5075751;28;20040;-72
2021/05/17 13:11:01;;;;;;;4.22;3.28;;;14.80;94.30;;;;;;5075149;28;20116;-72
2021/05/17 13:13:42;;;;;;;5.15;3.70;;;14.80;95.00;;;;;;5076083;28;20071;-72
2021/05/17 13:16:21;;;;;;;8.77;6.88;;;14.70;94.90;;;;;;5075260;28;20107;-71
2021/05/17 13:30:53;;;;;;;18.35;13.93;;;12.90;97.50;;;;;;5074677;28;20036;-68